sensor_id;sensor_type;location;lat;lon;timestamp;pressure;altitude;pressure_sealevel;temperature;humidity
7662;BME280;30314;48.184;11.510;2023-03-03T00:01:36;95994.38;;;-0.95;100.00
7662;BME280;30314;48.184;11.510;2023-03-03T00:04:02;95975.13;;;-1.06;100.00
7662;BME280;30314;48.184;11.510;2023-03-03T00:06:29;95996.41;;;-0.97;100.00
7662;BME280;30314;48.184;11.510;2023-03-03T00:08:56;95992.66;;;-1.01;100.00
7662;BME280;30314;48.184;11.510;2023-03-03T00:11:23;95989.66;;;-1.05;100.00
7662;BME280;30314;48.184;11.510;2023-03-03T00:13:54;95957.25;;;-1.21;100.00
7662;BME280;30314;48.184;11.510;2023-03-03T00:16:38;95976.88;;;-1.00;100.00
7662;BME280;30314;48.184;11.510;2023-03-03T00:19:14;96005.34;;;-0.93;100.00
7662;BME280;30314;48.184;11.510;2023-03-03T00:21:44;96003.75;;;-0.94;100.00
7662;BME280;30314;48.184;11.510;2023-03-03T00:24:21;96003.59;;;-0.99;100.00
7662;BME280;30314;48.184;11.510;2023-03-03T00:26:51;95999.63;;;-1.02;100.00
7662;BME280;30314;48.184;11.510;2023-03-03T00:29:28;95999.03;;;-1.04;100.00
7662;BME280;30314;48.184;11.510;2023-03-03T00:34:35;95985.72;;;-1.14;100.00
7662;BME280;30314;48.184;11.510;2023-03-03T00:37:01;95992.50;;;-1.13;100.00
7662;BME280;30314;48.184;11.510;2023-03-03T00:39:32;95996.47;;;-1.10;100.00
7662;BME280;30314;48.184;11.510;2023-03-03T00:42:01;96007.00;;;-1.05;100.00
7662;BME280;30314;48.184;11.510;2023-03-03T00:44:43;96009.00;;;-1.07;100.00
7662;BME280;30314;48.184;11.510;2023-03-03T00:47:30;96004.66;;;-1.13;100.00
7662;BME280;30314;48.184;11.510;2023-03-03T00:52:44;96010.09;;;-1.22;100.00
7662;BME280;30314;48.184;11.510;2023-03-03T00:55:11;96013.66;;;-1.16;100.00
7662;BME280;30314;48.184;11.510;2023-03-03T00:57:37;96013.25;;;-1.20;100.00
7662;BME280;30314;48.184;11.510;2023-03-03T01:00:07;96005.91;;;-1.23;100.00
7662;BME280;30314;48.184;11.510;2023-03-03T01:02:34;96010.03;;;-1.08;100.00
7662;BME280;30314;48.184;11.510;2023-03-03T01:05:01;95996.47;;;-1.10;100.00
7662;BME280;30314;48.184;11.510;2023-03-03T01:07:27;96010.78;;;-1.01;100.00
7662;BME280;30314;48.184;11.510;2023-03-03T01:09:54;96001.03;;;-1.06;100.00
7662;BME280;30314;48.184;11.510;2023-03-03T01:12:20;95999.00;;;-0.97;100.00
7662;BME280;30314;48.184;11.510;2023-03-03T01:14:47;95975.38;;;-1.21;100.00
7662;BME280;30314;48.184;11.510;2023-03-03T01:17:14;95994.69;;;-1.17;100.00
7662;BME280;30314;48.184;11.510;2023-03-03T01:19:41;96002.47;;;-1.17;100.00
7662;BME280;30314;48.184;11.510;2023-03-03T01:22:07;96014.47;;;-1.16;100.00
7662;BME280;30314;48.184;11.510;2023-03-03T01:24:33;95962.75;;;-1.49;100.00
7662;BME280;30314;48.184;11.510;2023-03-03T01:27:00;95959.56;;;-1.51;100.00
7662;BME280;30314;48.184;11.510;2023-03-03T01:29:26;95956.16;;;-1.38;100.00
7662;BME280;30314;48.184;11.510;2023-03-03T01:31:53;95991.72;;;-1.13;100.00
7662;BME280;30314;48.184;11.510;2023-03-03T01:34:20;95950.75;;;-1.37;100.00
7662;BME280;30314;48.184;11.510;2023-03-03T01:36:47;95987.16;;;-1.18;100.00
7662;BME280;30314;48.184;11.510;2023-03-03T01:39:13;95993.53;;;-1.21;100.00
7662;BME280;30314;48.184;11.510;2023-03-03T01:41:40;95982.03;;;-1.32;100.00
7662;BME280;30314;48.184;11.510;2023-03-03T01:44:12;95953.19;;;-1.49;100.00
7662;BME280;30314;48.184;11.510;2023-03-03T01:49:33;95982.22;;;-1.33;100.00
7662;BME280;30314;48.184;11.510;2023-03-03T01:52:10;95969.53;;;-1.41;100.00
7662;BME280;30314;48.184;11.510;2023-03-03T01:54:42;95986.22;;;-1.31;100.00
7662;BME280;30314;48.184;11.510;2023-03-03T01:57:21;95979.84;;;-1.35;100.00
7662;BME280;30314;48.184;11.510;2023-03-03T01:59:50;95967.09;;;-1.36;100.00
7662;BME280;30314;48.184;11.510;2023-03-03T02:02:18;95941.25;;;-1.50;100.00
7662;BME280;30314;48.184;11.510;2023-03-03T02:04:45;95979.59;;;-1.26;100.00
7662;BME280;30314;48.184;11.510;2023-03-03T02:07:14;95925.78;;;-1.63;100.00
7662;BME280;30314;48.184;11.510;2023-03-03T02:10:10;95982.41;;;-1.28;100.00
7662;BME280;30314;48.184;11.510;2023-03-03T02:12:42;95970.47;;;-1.29;100.00
7662;BME280;30314;48.184;11.510;2023-03-03T02:17:43;95981.19;;;-1.25;100.00
7662;BME280;30314;48.184;11.510;2023-03-03T02:20:28;95987.59;;;-1.28;100.00
7662;BME280;30314;48.184;11.510;2023-03-03T02:23:26;95976.63;;;-1.30;100.00
7662;BME280;30314;48.184;11.510;2023-03-03T02:28:29;95985.66;;;-1.39;100.00
7662;BME280;30314;48.184;11.510;2023-03-03T02:31:01;95996.81;;;-1.46;100.00
7662;BME280;30314;48.184;11.510;2023-03-03T02:33:27;95981.09;;;-1.44;100.00
7662;BME280;30314;48.184;11.510;2023-03-03T02:35:54;95977.84;;;-1.33;100.00
7662;BME280;30314;48.184;11.510;2023-03-03T02:41:29;95980.44;;;-1.33;100.00
7662;BME280;30314;48.184;11.510;2023-03-03T02:44:11;95977.47;;;-1.36;100.00
7662;BME280;30314;48.184;11.510;2023-03-03T02:46:40;95981.81;;;-1.30;100.00
7662;BME280;30314;48.184;11.510;2023-03-03T02:49:10;95982.16;;;-1.20;100.00
7662;BME280;30314;48.184;11.510;2023-03-03T02:51:37;95969.28;;;-1.33;100.00
7662;BME280;30314;48.184;11.510;2023-03-03T02:54:05;95980.19;;;-1.24;100.00
7662;BME280;30314;48.184;11.510;2023-03-03T02:56:33;95972.63;;;-1.26;100.00
7662;BME280;30314;48.184;11.510;2023-03-03T02:58:59;95963.44;;;-1.22;100.00
7662;BME280;30314;48.184;11.510;2023-03-03T03:01:30;95979.06;;;-1.03;100.00
7662;BME280;30314;48.184;11.510;2023-03-03T03:04:12;95963.94;;;-1.06;100.00
7662;BME280;30314;48.184;11.510;2023-03-03T03:06:43;95980.38;;;-0.87;100.00
7662;BME280;30314;48.184;11.510;2023-03-03T03:09:11;95960.69;;;-0.95;100.00
7662;BME280;30314;48.184;11.510;2023-03-03T03:11:38;95965.25;;;-0.90;100.00
7662;BME280;30314;48.184;11.510;2023-03-03T03:14:07;95973.56;;;-0.81;100.00
7662;BME280;30314;48.184;11.510;2023-03-03T03:16:35;95973.94;;;-0.78;100.00
7662;BME280;30314;48.184;11.510;2023-03-03T03:19:03;95946.13;;;-0.96;100.00
7662;BME280;30314;48.184;11.510;2023-03-03T03:21:31;95983.13;;;-0.75;100.00
7662;BME280;30314;48.184;11.510;2023-03-03T03:23:59;95971.34;;;-0.78;100.00
7662;BME280;30314;48.184;11.510;2023-03-03T03:26:26;95972.56;;;-0.80;100.00
7662;BME280;30314;48.184;11.510;2023-03-03T03:28:53;95940.00;;;-1.02;100.00
7662;BME280;30314;48.184;11.510;2023-03-03T03:31:20;95995.03;;;-0.67;100.00
7662;BME280;30314;48.184;11.510;2023-03-03T03:33:47;95989.63;;;-0.66;100.00
7662;BME280;30314;48.184;11.510;2023-03-03T03:36:16;95977.88;;;-0.68;100.00
7662;BME280;30314;48.184;11.510;2023-03-03T03:38:42;95972.66;;;-0.62;100.00
7662;BME280;30314;48.184;11.510;2023-03-03T03:41:11;95991.84;;;-0.44;100.00
7662;BME280;30314;48.184;11.510;2023-03-03T03:43:39;95983.69;;;-0.48;100.00
7662;BME280;30314;48.184;11.510;2023-03-03T03:46:06;95974.53;;;-0.50;100.00
7662;BME280;30314;48.184;11.510;2023-03-03T03:48:33;95986.81;;;-0.39;100.00
7662;BME280;30314;48.184;11.510;2023-03-03T03:51:02;95987.03;;;-0.40;100.00
7662;BME280;30314;48.184;11.510;2023-03-03T03:53:30;95970.16;;;-0.50;100.00
7662;BME280;30314;48.184;11.510;2023-03-03T03:55:57;95924.25;;;-0.75;100.00
7662;BME280;30314;48.184;11.510;2023-03-03T03:58:24;95970.53;;;-0.46;100.00
7662;BME280;30314;48.184;11.510;2023-03-03T04:01:02;95977.97;;;-0.31;100.00
7662;BME280;30314;48.184;11.510;2023-03-03T04:03:29;95967.63;;;-0.38;100.00
7662;BME280;30314;48.184;11.510;2023-03-03T04:05:55;95942.09;;;-0.60;100.00
7662;BME280;30314;48.184;11.510;2023-03-03T04:08:22;95988.91;;;-0.22;100.00
7662;BME280;30314;48.184;11.510;2023-03-03T04:10:49;95927.47;;;-0.54;100.00
7662;BME280;30314;48.184;11.510;2023-03-03T04:13:16;95988.59;;;-0.14;100.00
7662;BME280;30314;48.184;11.510;2023-03-03T04:15:43;95980.81;;;-0.14;100.00
7662;BME280;30314;48.184;11.510;2023-03-03T04:18:10;95974.25;;;-0.17;100.00
7662;BME280;30314;48.184;11.510;2023-03-03T04:20:38;95969.47;;;-0.20;100.00
7662;BME280;30314;48.184;11.510;2023-03-03T04:23:06;95963.91;;;-0.23;100.00
7662;BME280;30314;48.184;11.510;2023-03-03T04:25:32;95992.53;;;-0.05;100.00
7662;BME280;30314;48.184;11.510;2023-03-03T04:28:00;95989.50;;;-0.02;100.00
7662;BME280;30314;48.184;11.510;2023-03-03T04:30:30;95983.78;;;0.08;100.00
7662;BME280;30314;48.184;11.510;2023-03-03T04:32:58;95996.31;;;0.18;100.00
7662;BME280;30314;48.184;11.510;2023-03-03T04:35:26;95978.53;;;-0.04;100.00
7662;BME280;30314;48.184;11.510;2023-03-03T04:37:52;95978.97;;;-0.07;100.00
7662;BME280;30314;48.184;11.510;2023-03-03T04:40:19;95971.38;;;-0.08;100.00
7662;BME280;30314;48.184;11.510;2023-03-03T04:42:48;95969.00;;;-0.10;100.00
7662;BME280;30314;48.184;11.510;2023-03-03T04:45:15;95992.66;;;0.01;100.00
7662;BME280;30314;48.184;11.510;2023-03-03T04:47:43;95968.66;;;-0.13;100.00
7662;BME280;30314;48.184;11.510;2023-03-03T04:50:11;95973.53;;;-0.05;100.00
7662;BME280;30314;48.184;11.510;2023-03-03T04:52:39;95983.72;;;-0.04;100.00
7662;BME280;30314;48.184;11.510;2023-03-03T04:55:07;95982.00;;;0.09;100.00
7662;BME280;30314;48.184;11.510;2023-03-03T04:57:36;95982.00;;;0.09;100.00
7662;BME280;30314;48.184;11.510;2023-03-03T05:00:04;95991.97;;;0.12;100.00
7662;BME280;30314;48.184;11.510;2023-03-03T05:02:32;95991.59;;;0.08;100.00
7662;BME280;30314;48.184;11.510;2023-03-03T05:04:59;95972.53;;;-0.04;100.00
7662;BME280;30314;48.184;11.510;2023-03-03T05:07:26;95983.38;;;0.11;100.00
7662;BME280;30314;48.184;11.510;2023-03-03T05:09:52;95988.16;;;0.15;100.00
7662;BME280;30314;48.184;11.510;2023-03-03T05:12:18;95951.41;;;-0.08;100.00
7662;BME280;30314;48.184;11.510;2023-03-03T05:14:45;95979.34;;;0.16;100.00
7662;BME280;30314;48.184;11.510;2023-03-03T05:17:11;95941.22;;;-0.09;100.00
7662;BME280;30314;48.184;11.510;2023-03-03T05:19:38;95950.41;;;-0.07;100.00
7662;BME280;30314;48.184;11.510;2023-03-03T05:22:05;95952.63;;;-0.10;100.00
7662;BME280;30314;48.184;11.510;2023-03-03T05:24:31;95953.63;;;-0.11;100.00
7662;BME280;30314;48.184;11.510;2023-03-03T05:26:58;95978.78;;;0.13;100.00
7662;BME280;30314;48.184;11.510;2023-03-03T05:29:24;95957.75;;;-0.04;100.00
7662;BME280;30314;48.184;11.510;2023-03-03T05:31:51;96000.63;;;0.24;100.00
7662;BME280;30314;48.184;11.510;2023-03-03T05:34:18;96004.38;;;0.29;100.00
7662;BME280;30314;48.184;11.510;2023-03-03T05:36:44;95999.53;;;0.13;100.00
7662;BME280;30314;48.184;11.510;2023-03-03T05:39:11;96014.06;;;0.21;100.00
7662;BME280;30314;48.184;11.510;2023-03-03T05:41:37;95990.00;;;0.07;100.00
7662;BME280;30314;48.184;11.510;2023-03-03T05:44:04;95982.22;;;0.07;100.00
7662;BME280;30314;48.184;11.510;2023-03-03T05:46:31;95963.69;;;0.04;100.00
7662;BME280;30314;48.184;11.510;2023-03-03T05:48:57;95961.13;;;-0.03;100.00
7662;BME280;30314;48.184;11.510;2023-03-03T05:51:24;95958.19;;;-0.07;100.00
7662;BME280;30314;48.184;11.510;2023-03-03T05:53:50;95982.00;;;0.09;100.00
7662;BME280;30314;48.184;11.510;2023-03-03T05:56:17;95941.31;;;-0.16;100.00
7662;BME280;30314;48.184;11.510;2023-03-03T05:58:44;96019.38;;;0.26;100.00
7662;BME280;30314;48.184;11.510;2023-03-03T06:01:11;96019.38;;;0.26;100.00
7662;BME280;30314;48.184;11.510;2023-03-03T06:03:38;95968.56;;;-0.07;100.00
7662;BME280;30314;48.184;11.510;2023-03-03T06:06:04;96007.41;;;0.25;100.00
7662;BME280;30314;48.184;11.510;2023-03-03T06:08:31;95971.88;;;0.01;100.00
7662;BME280;30314;48.184;11.510;2023-03-03T06:10:58;95986.38;;;0.08;100.00
7662;BME280;30314;48.184;11.510;2023-03-03T06:13:24;95981.13;;;0.15;100.00
7662;BME280;30314;48.184;11.510;2023-03-03T06:15:51;96039.53;;;0.50;100.00
7662;BME280;30314;48.184;11.510;2023-03-03T06:18:18;96032.16;;;0.47;100.00
7662;BME280;30314;48.184;11.510;2023-03-03T06:20:50;96034.84;;;0.40;100.00
7662;BME280;30314;48.184;11.510;2023-03-03T06:23:16;96008.06;;;0.21;100.00
7662;BME280;30314;48.184;11.510;2023-03-03T06:25:43;96045.97;;;0.47;100.00
7662;BME280;30314;48.184;11.510;2023-03-03T06:28:09;96049.41;;;0.41;100.00
7662;BME280;30314;48.184;11.510;2023-03-03T06:30:36;96048.56;;;0.47;100.00
7662;BME280;30314;48.184;11.510;2023-03-03T06:33:04;96041.41;;;0.43;100.00
7662;BME280;30314;48.184;11.510;2023-03-03T06:35:30;96000.81;;;0.23;100.00
7662;BME280;30314;48.184;11.510;2023-03-03T06:37:57;96027.63;;;0.42;100.00
7662;BME280;30314;48.184;11.510;2023-03-03T06:40:23;96010.09;;;0.37;100.00
7662;BME280;30314;48.184;11.510;2023-03-03T06:42:50;95989.97;;;0.33;100.00
7662;BME280;30314;48.184;11.510;2023-03-03T06:45:16;96046.84;;;0.60;100.00
7662;BME280;30314;48.184;11.510;2023-03-03T06:47:43;96054.50;;;0.73;100.00
7662;BME280;30314;48.184;11.510;2023-03-03T06:50:11;96057.22;;;0.78;100.00
7662;BME280;30314;48.184;11.510;2023-03-03T06:52:38;96044.28;;;0.72;100.00
7662;BME280;30314;48.184;11.510;2023-03-03T06:55:21;96046.53;;;0.68;100.00
7662;BME280;30314;48.184;11.510;2023-03-03T06:57:48;96052.38;;;0.82;100.00
7662;BME280;30314;48.184;11.510;2023-03-03T07:00:18;96062.72;;;0.89;100.00
7662;BME280;30314;48.184;11.510;2023-03-03T07:03:24;96062.91;;;0.87;100.00
7662;BME280;30314;48.184;11.510;2023-03-03T07:05:53;96059.69;;;0.73;100.00
7662;BME280;30314;48.184;11.510;2023-03-03T07:08:22;96076.72;;;0.88;100.00
7662;BME280;30314;48.184;11.510;2023-03-03T07:10:50;96068.69;;;0.89;100.00
7662;BME280;30314;48.184;11.510;2023-03-03T07:13:26;96060.53;;;0.86;100.00
7662;BME280;30314;48.184;11.510;2023-03-03T07:15:55;96034.78;;;0.65;100.00
7662;BME280;30314;48.184;11.510;2023-03-03T07:18:38;96074.91;;;0.88;100.00
7662;BME280;30314;48.184;11.510;2023-03-03T07:23:39;96073.69;;;0.91;100.00
7662;BME280;30314;48.184;11.510;2023-03-03T07:26:18;96085.94;;;1.02;100.00
7662;BME280;30314;48.184;11.510;2023-03-03T07:28:55;96092.63;;;0.98;100.00
7662;BME280;30314;48.184;11.510;2023-03-03T07:33:53;96078.34;;;1.01;100.00
7662;BME280;30314;48.184;11.510;2023-03-03T07:36:28;96084.44;;;0.94;100.00
7662;BME280;30314;48.184;11.510;2023-03-03T07:38:58;96085.22;;;0.95;100.00
7662;BME280;30314;48.184;11.510;2023-03-03T07:41:27;96106.81;;;1.14;100.00
7662;BME280;30314;48.184;11.510;2023-03-03T07:44:05;96102.50;;;1.08;100.00
7662;BME280;30314;48.184;11.510;2023-03-03T07:46:46;96104.84;;;1.09;100.00
7662;BME280;30314;48.184;11.510;2023-03-03T07:49:38;96098.88;;;1.09;100.00
7662;BME280;30314;48.184;11.510;2023-03-03T07:52:23;96102.25;;;1.09;100.00
7662;BME280;30314;48.184;11.510;2023-03-03T07:54:52;96096.06;;;1.10;100.00
7662;BME280;30314;48.184;11.510;2023-03-03T07:57:29;96105.06;;;1.26;100.00
7662;BME280;30314;48.184;11.510;2023-03-03T08:03:03;96111.34;;;1.37;100.00
7662;BME280;30314;48.184;11.510;2023-03-03T08:10:53;96109.41;;;1.63;100.00
7662;BME280;30314;48.184;11.510;2023-03-03T08:13:23;96108.50;;;1.70;100.00
7662;BME280;30314;48.184;11.510;2023-03-03T08:18:45;96105.59;;;1.78;100.00
7662;BME280;30314;48.184;11.510;2023-03-03T08:21:24;96101.97;;;1.79;100.00
7662;BME280;30314;48.184;11.510;2023-03-03T08:23:51;96081.44;;;1.71;100.00
7662;BME280;30314;48.184;11.510;2023-03-03T08:26:21;96104.63;;;2.03;100.00
7662;BME280;30314;48.184;11.510;2023-03-03T08:28:48;96108.25;;;2.14;100.00
7662;BME280;30314;48.184;11.510;2023-03-03T08:31:14;96087.50;;;2.07;100.00
7662;BME280;30314;48.184;11.510;2023-03-03T08:33:59;96094.31;;;2.08;100.00
7662;BME280;30314;48.184;11.510;2023-03-03T08:36:26;96114.38;;;2.31;100.00
7662;BME280;30314;48.184;11.510;2023-03-03T08:38:52;96100.44;;;2.25;100.00
7662;BME280;30314;48.184;11.510;2023-03-03T08:41:19;96103.16;;;2.31;100.00
7662;BME280;30314;48.184;11.510;2023-03-03T08:43:45;96112.91;;;2.35;100.00
7662;BME280;30314;48.184;11.510;2023-03-03T08:46:12;96107.00;;;2.40;100.00
7662;BME280;30314;48.184;11.510;2023-03-03T08:48:38;96105.41;;;2.39;100.00
7662;BME280;30314;48.184;11.510;2023-03-03T08:51:05;96086.84;;;2.23;100.00
7662;BME280;30314;48.184;11.510;2023-03-03T08:53:32;96088.06;;;2.21;100.00
7662;BME280;30314;48.184;11.510;2023-03-03T08:56:02;96113.47;;;2.37;100.00
7662;BME280;30314;48.184;11.510;2023-03-03T08:58:28;96110.75;;;2.44;100.00
7662;BME280;30314;48.184;11.510;2023-03-03T09:01:01;96138.63;;;2.67;100.00
7662;BME280;30314;48.184;11.510;2023-03-03T09:03:27;96136.72;;;2.63;100.00
7662;BME280;30314;48.184;11.510;2023-03-03T09:05:55;96128.88;;;2.75;100.00
7662;BME280;30314;48.184;11.510;2023-03-03T09:08:21;96126.28;;;2.63;100.00
7662;BME280;30314;48.184;11.510;2023-03-03T09:10:48;96120.25;;;2.62;100.00
7662;BME280;30314;48.184;11.510;2023-03-03T09:13:16;96128.22;;;2.67;100.00
7662;BME280;30314;48.184;11.510;2023-03-03T09:15:45;96143.84;;;2.79;100.00
7662;BME280;30314;48.184;11.510;2023-03-03T09:18:29;96136.22;;;2.90;100.00
7662;BME280;30314;48.184;11.510;2023-03-03T09:20:56;96126.25;;;2.87;100.00
7662;BME280;30314;48.184;11.510;2023-03-03T09:23:37;96136.91;;;2.97;100.00
7662;BME280;30314;48.184;11.510;2023-03-03T09:28:37;96136.06;;;3.08;100.00
7662;BME280;30314;48.184;11.510;2023-03-03T09:31:20;96143.91;;;3.20;100.00
7662;BME280;30314;48.184;11.510;2023-03-03T09:33:47;96138.06;;;3.30;100.00
7662;BME280;30314;48.184;11.510;2023-03-03T09:36:35;96150.03;;;3.14;100.00
7662;BME280;30314;48.184;11.510;2023-03-03T09:39:18;96155.22;;;3.26;100.00
7662;BME280;30314;48.184;11.510;2023-03-03T09:47:39;96150.91;;;3.32;100.00
7662;BME280;30314;48.184;11.510;2023-03-03T09:50:58;96150.22;;;3.36;100.00
7662;BME280;30314;48.184;11.510;2023-03-03T09:53:44;96169.91;;;3.56;100.00
7662;BME280;30314;48.184;11.510;2023-03-03T09:56:43;96166.72;;;3.54;100.00
7662;BME280;30314;48.184;11.510;2023-03-03T10:07:26;96170.63;;;3.40;100.00
7662;BME280;30314;48.184;11.510;2023-03-03T10:13:14;96172.56;;;3.44;100.00
7662;BME280;30314;48.184;11.510;2023-03-03T10:22:16;96171.28;;;3.47;100.00
7662;BME280;30314;48.184;11.510;2023-03-03T10:25:14;96183.03;;;3.61;100.00
7662;BME280;30314;48.184;11.510;2023-03-03T10:30:49;96176.97;;;3.73;100.00
7662;BME280;30314;48.184;11.510;2023-03-03T10:33:45;96175.06;;;3.68;100.00
7662;BME280;30314;48.184;11.510;2023-03-03T10:36:19;96189.13;;;3.79;100.00
7662;BME280;30314;48.184;11.510;2023-03-03T10:39:05;96160.75;;;3.71;100.00
7662;BME280;30314;48.184;11.510;2023-03-03T10:44:34;96177.22;;;4.00;100.00
7662;BME280;30314;48.184;11.510;2023-03-03T10:52:41;96175.38;;;4.01;100.00
7662;BME280;30314;48.184;11.510;2023-03-03T10:55:39;96175.41;;;4.18;100.00
7662;BME280;30314;48.184;11.510;2023-03-03T10:58:49;96179.06;;;4.34;100.00
7662;BME280;30314;48.184;11.510;2023-03-03T11:07:22;96180.31;;;4.31;100.00
7662;BME280;30314;48.184;11.510;2023-03-03T11:16:25;96193.19;;;4.50;100.00
7662;BME280;30314;48.184;11.510;2023-03-03T11:33:11;96175.41;;;4.35;100.00
7662;BME280;30314;48.184;11.510;2023-03-03T11:38:47;96179.31;;;4.49;100.00
7662;BME280;30314;48.184;11.510;2023-03-03T11:41:25;96160.44;;;4.47;100.00
7662;BME280;30314;48.184;11.510;2023-03-03T11:44:17;96166.22;;;4.49;100.00
7662;BME280;30314;48.184;11.510;2023-03-03T11:46:53;96174.78;;;4.45;100.00
7662;BME280;30314;48.184;11.510;2023-03-03T11:52:30;96158.69;;;4.53;100.00
7662;BME280;30314;48.184;11.510;2023-03-03T11:55:20;96169.38;;;4.51;100.00
7662;BME280;30314;48.184;11.510;2023-03-03T11:57:55;96176.19;;;4.53;100.00
7662;BME280;30314;48.184;11.510;2023-03-03T12:00:36;96155.75;;;4.49;100.00
7662;BME280;30314;48.184;11.510;2023-03-03T12:03:13;96157.28;;;4.62;100.00
7662;BME280;30314;48.184;11.510;2023-03-03T12:11:33;96149.81;;;4.71;100.00
7662;BME280;30314;48.184;11.510;2023-03-03T12:16:59;96144.66;;;4.59;100.00
7662;BME280;30314;48.184;11.510;2023-03-03T12:28:05;96149.50;;;4.90;100.00
7662;BME280;30314;48.184;11.510;2023-03-03T12:30:52;96143.66;;;5.22;100.00
7662;BME280;30314;48.184;11.510;2023-03-03T12:33:50;96146.81;;;5.74;100.00
7662;BME280;30314;48.184;11.510;2023-03-03T12:36:46;96144.19;;;5.74;100.00
7662;BME280;30314;48.184;11.510;2023-03-03T12:42:11;96137.31;;;5.68;100.00
7662;BME280;30314;48.184;11.510;2023-03-03T12:44:47;96144.03;;;5.58;100.00
7662;BME280;30314;48.184;11.510;2023-03-03T12:47:35;96126.00;;;5.34;100.00
7662;BME280;30314;48.184;11.510;2023-03-03T12:50:26;96133.09;;;5.61;100.00
7662;BME280;30314;48.184;11.510;2023-03-03T12:58:33;96133.47;;;5.48;100.00
7662;BME280;30314;48.184;11.510;2023-03-03T13:01:11;96139.78;;;5.52;100.00
7662;BME280;30314;48.184;11.510;2023-03-03T13:03:58;96111.41;;;5.44;100.00
7662;BME280;30314;48.184;11.510;2023-03-03T13:06:29;96125.34;;;5.49;100.00
7662;BME280;30314;48.184;11.510;2023-03-03T13:09:21;96113.06;;;5.28;100.00
7662;BME280;30314;48.184;11.510;2023-03-03T13:12:22;96134.97;;;5.44;100.00
7662;BME280;30314;48.184;11.510;2023-03-03T13:15:03;96134.06;;;5.55;100.00
7662;BME280;30314;48.184;11.510;2023-03-03T13:26:02;96122.59;;;5.61;100.00
7662;BME280;30314;48.184;11.510;2023-03-03T13:28:55;96115.94;;;5.54;100.00
7662;BME280;30314;48.184;11.510;2023-03-03T13:31:32;96096.56;;;5.27;100.00
7662;BME280;30314;48.184;11.510;2023-03-03T13:34:00;96105.06;;;5.40;100.00
7662;BME280;30314;48.184;11.510;2023-03-03T13:37:05;96119.56;;;5.47;100.00
7662;BME280;30314;48.184;11.510;2023-03-03T13:39:30;96119.59;;;5.75;100.00
7662;BME280;30314;48.184;11.510;2023-03-03T13:44:55;96086.50;;;5.41;100.00
7662;BME280;30314;48.184;11.510;2023-03-03T13:50:17;96113.34;;;5.81;100.00
7662;BME280;30314;48.184;11.510;2023-03-03T13:53:01;96108.81;;;5.71;100.00
7662;BME280;30314;48.184;11.510;2023-03-03T13:58:37;96102.41;;;5.62;100.00
7662;BME280;30314;48.184;11.510;2023-03-03T14:01:19;96094.13;;;5.70;100.00
7662;BME280;30314;48.184;11.510;2023-03-03T14:03:54;96099.84;;;5.67;100.00
7662;BME280;30314;48.184;11.510;2023-03-03T14:06:25;96084.28;;;5.83;100.00
7662;BME280;30314;48.184;11.510;2023-03-03T14:08:59;96097.22;;;6.00;100.00
7662;BME280;30314;48.184;11.510;2023-03-03T14:14:24;96090.69;;;5.70;100.00
7662;BME280;30314;48.184;11.510;2023-03-03T14:17:16;96091.22;;;5.72;100.00
7662;BME280;30314;48.184;11.510;2023-03-03T14:20:02;96061.78;;;5.59;100.00
7662;BME280;30314;48.184;11.510;2023-03-03T14:23:07;96059.66;;;5.56;100.00
7662;BME280;30314;48.184;11.510;2023-03-03T14:28:26;96075.78;;;5.70;100.00
7662;BME280;30314;48.184;11.510;2023-03-03T14:30:55;96087.28;;;5.69;100.00
7662;BME280;30314;48.184;11.510;2023-03-03T14:33:27;96085.41;;;5.64;100.00
7662;BME280;30314;48.184;11.510;2023-03-03T14:38:45;96075.16;;;5.63;100.00
7662;BME280;30314;48.184;11.510;2023-03-03T14:41:12;96078.94;;;5.72;100.00
7662;BME280;30314;48.184;11.510;2023-03-03T14:43:42;96078.44;;;5.75;100.00
7662;BME280;30314;48.184;11.510;2023-03-03T14:48:59;96074.00;;;6.14;100.00
7662;BME280;30314;48.184;11.510;2023-03-03T14:51:37;96078.88;;;6.00;100.00
7662;BME280;30314;48.184;11.510;2023-03-03T14:54:18;96068.66;;;5.98;100.00
7662;BME280;30314;48.184;11.510;2023-03-03T14:57:18;96084.81;;;6.17;100.00
7662;BME280;30314;48.184;11.510;2023-03-03T15:02:29;96078.34;;;5.98;100.00
7662;BME280;30314;48.184;11.510;2023-03-03T15:05:16;96087.31;;;6.02;100.00
7662;BME280;30314;48.184;11.510;2023-03-03T15:07:46;96085.91;;;5.94;100.00
7662;BME280;30314;48.184;11.510;2023-03-03T15:10:26;96077.03;;;5.95;100.00
7662;BME280;30314;48.184;11.510;2023-03-03T15:12:53;96077.31;;;5.99;100.00
7662;BME280;30314;48.184;11.510;2023-03-03T15:15:23;96076.44;;;5.88;100.00
7662;BME280;30314;48.184;11.510;2023-03-03T15:20:41;96077.31;;;5.99;100.00
7662;BME280;30314;48.184;11.510;2023-03-03T15:25:43;96088.25;;;5.90;100.00
7662;BME280;30314;48.184;11.510;2023-03-03T15:42:04;96069.66;;;5.92;100.00
7662;BME280;30314;48.184;11.510;2023-03-03T15:44:55;96081.59;;;6.10;100.00
7662;BME280;30314;48.184;11.510;2023-03-03T15:47:48;96072.63;;;6.01;100.00
7662;BME280;30314;48.184;11.510;2023-03-03T15:50:25;96073.00;;;5.87;100.00
7662;BME280;30314;48.184;11.510;2023-03-03T15:58:34;96087.75;;;5.94;100.00
7662;BME280;30314;48.184;11.510;2023-03-03T16:01:25;96073.28;;;5.86;100.00
7662;BME280;30314;48.184;11.510;2023-03-03T16:04:08;96084.63;;;5.97;100.00
7662;BME280;30314;48.184;11.510;2023-03-03T16:06:42;96089.44;;;6.05;100.00
7662;BME280;30314;48.184;11.510;2023-03-03T16:09:23;96085.75;;;6.06;100.00
7662;BME280;30314;48.184;11.510;2023-03-03T16:12:00;96086.53;;;6.06;100.00
7662;BME280;30314;48.184;11.510;2023-03-03T16:20:28;96103.06;;;6.07;100.00
7662;BME280;30314;48.184;11.510;2023-03-03T16:23:12;96064.28;;;5.76;100.00
7662;BME280;30314;48.184;11.510;2023-03-03T16:28:46;96099.81;;;5.95;100.00
7662;BME280;30314;48.184;11.510;2023-03-03T16:37:58;96099.22;;;5.87;100.00
7662;BME280;30314;48.184;11.510;2023-03-03T16:39:55;96107.28;;;5.81;100.00
7662;BME280;30314;48.184;11.510;2023-03-03T16:42:27;96082.16;;;5.52;100.00
7662;BME280;30314;48.184;11.510;2023-03-03T16:53:22;96130.47;;;5.61;100.00
7662;BME280;30314;48.184;11.510;2023-03-03T16:56:45;96132.81;;;5.63;100.00